Time;durP1;ratioP1;P1;durP2;ratioP2;P2;SDS_P1;SDS_P2;PMS_P1;PMS_P2;Temp;Humidity;BMP_temperature;BMP_pressure;BME280_temperature;BME280_humidity;BME280_pressure;Samples;Min_cycle;Max_cycle;Signal;HPM_P1;HPM_P2
2022/12/31 00:00:14;;;;;;;;;;;;;;;-18.71;61.58;97757.81;6298565;28;19920;-67
2022/12/31 00:03:15;;;;;;;;;;;;;;;-18.75;61.88;97745.88;6298207;28;19920;-67
2022/12/31 00:06:29;;;;;;;;;;;;;;;-18.80;62.15;97747.22;6299761;28;19927;-66
2022/12/31 00:09:30;;;;;;;;;;;;;;;-18.83;61.81;97762.09;6299948;28;20372;-68
2022/12/31 00:12:33;;;;;;;;;;;;;;;-18.84;61.71;97752.84;6299816;28;19920;-68
2022/12/31 00:15:34;;;;;;;;;;;;;;;-18.84;61.65;97760.38;6299621;28;19920;-67
2022/12/31 00:18:38;;;;;;;;;;;;;;;-18.82;61.27;97758.81;6299489;28;19920;-67
2022/12/31 00:21:39;;;;;;;;;;;;;;;-18.85;61.76;97766.16;6299276;28;19920;-68
2022/12/31 00:24:39;;;;;;;;;;;;;;;-18.84;61.99;97751.19;6299608;28;20314;-67
2022/12/31 00:27:40;;;;;;;;;;;;;;;-18.83;61.65;97747.91;6299424;28;20039;-68
2022/12/31 00:30:41;;;;;;;;;;;;;;;-18.84;61.43;97751.19;6299247;28;20397;-67
2022/12/31 00:33:43;;;;;;;;;;;;;;;-18.87;61.50;97751.00;6298689;28;19927;-67
2022/12/31 00:36:46;;;;;;;;;;;;;;;-18.94;60.99;97753.88;6299081;28;19920;-67
2022/12/31 00:39:47;;;;;;;;;;;;;;;-18.94;61.67;97773.09;6297845;28;19920;-67
2022/12/31 00:42:50;;;;;;;;;;;;;;;-18.94;61.54;97760.56;6297661;28;20009;-67
2022/12/31 00:45:54;;;;;;;;;;;;;;;-18.92;61.26;97774.06;6298865;28;19920;-67
2022/12/31 00:48:57;;;;;;;;;;;;;;;-18.95;61.49;97766.34;6298682;28;19962;-67
2022/12/31 00:51:58;;;;;;;;;;;;;;;-18.98;61.02;97761.16;6298981;28;19927;-67
2022/12/31 00:54:59;;;;;;;;;;;;;;;-19.03;61.25;97766.72;6298438;28;19917;-67
2022/12/31 00:58:02;;;;;;;;;;;;;;;-19.10;61.29;97767.13;6298474;28;20287;-67
2022/12/31 01:01:23;;;;;;;;;;;;;;;-19.15;61.21;97768.47;6298317;28;19920;-67
2022/12/31 01:04:25;;;;;;;;;;;;;;;-19.19;61.25;97780.69;6298520;28;20409;-67
2022/12/31 01:07:26;;;;;;;;;;;;;;;-19.20;61.50;97768.94;6297928;28;19924;-67
2022/12/31 01:13:51;;;;;;;;;;;;;;;-19.15;60.78;97763.44;6298405;28;19916;-67
2022/12/31 01:16:55;;;;;;;;;;;;;;;-19.12;61.17;97777.81;6298320;28;19927;-67
2022/12/31 01:19:57;;;;;;;;;;;;;;;-19.11;60.84;97770.38;6298062;28;19916;-67
2022/12/31 01:23:00;;;;;;;;;;;;;;;-19.11;61.17;97765.38;6298018;28;19927;-68
2022/12/31 01:26:03;;;;;;;;;;;;;;;-19.11;61.08;97765.38;6297613;28;19920;-69
2022/12/31 01:29:07;;;;;;;;;;;;;;;-19.12;60.77;97773.69;6298059;28;20306;-68
2022/12/31 01:32:08;;;;;;;;;;;;;;;-19.15;61.02;97783.50;6297834;28;19920;-67
2022/12/31 01:35:09;;;;;;;;;;;;;;;-19.18;61.27;97773.28;6297769;28;19920;-67
2022/12/31 01:38:10;;;;;;;;;;;;;;;-19.21;60.65;97778.09;6297811;28;19924;-67
2022/12/31 01:41:18;;;;;;;;;;;;;;;-19.24;60.99;97777.91;6297619;28;19920;-68
2022/12/31 01:44:24;;;;;;;;;;;;;;;-19.27;60.70;97782.75;6297410;28;20351;-67
2022/12/31 01:47:37;;;;;;;;;;;;;;;-19.27;60.40;97778.59;6297502;28;19920;-67
2022/12/31 01:50:41;;;;;;;;;;;;;;;-19.24;61.08;97782.94;6297427;28;20405;-67
2022/12/31 01:53:42;;;;;;;;;;;;;;;-19.20;61.18;97779.84;6297112;28;19924;-67
2022/12/31 01:56:46;;;;;;;;;;;;;;;-19.09;61.05;97773.00;6297115;28;20422;-68
2022/12/31 01:59:48;;;;;;;;;;;;;;;-18.91;60.99;97778.31;6297005;28;20058;-67
2022/12/31 02:02:54;;;;;;;;;;;;;;;-18.81;60.87;97780.63;6296928;28;19943;-68
2022/12/31 02:06:13;;;;;;;;;;;;;;;-18.81;60.55;97775.63;6295812;28;19920;-67
2022/12/31 02:09:19;;;;;;;;;;;;;;;-18.90;60.70;97777.56;6296873;28;20491;-67
2022/12/31 02:12:25;;;;;;;;;;;;;;;-19.01;60.39;97783.53;6296991;28;19920;-67
2022/12/31 02:15:46;;;;;;;;;;;;;;;-19.08;60.53;97790.63;6295638;28;19920;-67
2022/12/31 02:19:06;;;;;;;;;;;;;;;-19.10;60.70;97789.69;6296376;28;19921;-67
2022/12/31 02:22:09;;;;;;;;;;;;;;;-19.12;60.73;97788.72;6296280;28;19920;-67
2022/12/31 02:25:11;;;;;;;;;;;;;;;-19.16;60.77;97786.81;6296564;28;19927;-66
2022/12/31 02:28:27;;;;;;;;;;;;;;;-19.19;60.61;97786.56;6296584;28;19916;-67
2022/12/31 02:31:44;;;;;;;;;;;;;;;-19.20;60.59;97794.88;6296450;28;20058;-67
2022/12/31 02:34:51;;;;;;;;;;;;;;;-19.18;60.73;97802.53;6296550;28;19916;-68
2022/12/31 02:38:00;;;;;;;;;;;;;;;-19.18;60.41;97788.34;6295211;28;19927;-67
2022/12/31 02:41:01;;;;;;;;;;;;;;;-19.15;60.53;97785.16;6296084;28;20305;-68
2022/12/31 02:44:22;;;;;;;;;;;;;;;-19.04;60.78;97797.63;6296126;28;20452;-67
2022/12/31 02:47:34;;;;;;;;;;;;;;;-18.91;60.60;97803.41;6296118;28;19981;-67
2022/12/31 02:50:54;;;;;;;;;;;;;;;-18.78;60.77;97810.06;6296234;28;19920;-67
2022/12/31 02:54:06;;;;;;;;;;;;;;;-18.61;60.05;97805.31;6296160;28;19920;-68
2022/12/31 02:57:15;;;;;;;;;;;;;;;-18.44;60.11;97808.00;6296140;28;19924;-67
2022/12/31 03:03:40;;;;;;;;;;;;;;;-18.35;59.61;97804.41;6295945;28;20441;-67
2022/12/31 03:06:41;;;;;;;;;;;;;;;-18.34;59.63;97790.19;6295973;28;19930;-69
2022/12/31 03:09:45;;;;;;;;;;;;;;;-18.35;59.67;97789.31;6295901;28;19924;-68
2022/12/31 03:12:53;;;;;;;;;;;;;;;-18.36;59.64;97789.25;6296015;28;19927;-68
2022/12/31 03:15:54;;;;;;;;;;;;;;;-18.39;59.41;97797.47;6295778;28;19920;-68
2022/12/31 03:22:26;;;;;;;;;;;;;;;-18.62;60.19;97815.25;6295627;28;19920;-68
2022/12/31 03:25:40;;;;;;;;;;;;;;;-18.78;60.17;97810.94;6295761;28;19920;-68
2022/12/31 03:28:46;;;;;;;;;;;;;;;-18.84;60.15;97810.56;6295833;28;19936;-68
2022/12/31 03:31:47;;;;;;;;;;;;;;;-18.88;60.33;97813.63;6297612;28;19920;-68
2022/12/31 03:34:48;;;;;;;;;;;;;;;-18.90;60.10;97812.69;6300170;28;19926;-68
2022/12/31 03:37:49;;;;;;;;;;;;;;;-18.88;60.74;97818.66;6300666;28;19958;-68
2022/12/31 03:40:51;;;;;;;;;;;;;;;-18.90;60.56;97821.06;6300309;28;19920;-68
2022/12/31 03:43:54;;;;;;;;;;;;;;;-18.94;60.58;97823.28;6300108;28;20390;-68
2022/12/31 03:47:00;;;;;;;;;;;;;;;-18.98;60.70;97811.31;6300163;28;20377;-68
2022/12/31 03:50:02;;;;;;;;;;;;;;;-19.00;60.72;97817.88;6300118;28;19920;-68
2022/12/31 03:53:04;;;;;;;;;;;;;;;-19.04;60.62;97822.69;6299515;28;20413;-68
2022/12/31 03:56:05;;;;;;;;;;;;;;;-19.07;60.55;97819.13;6299797;28;19920;-68
2022/12/31 03:59:06;;;;;;;;;;;;;;;-19.11;60.53;97820.53;6299523;28;20412;-68
2022/12/31 04:02:12;;;;;;;;;;;;;;;-19.12;60.72;97818.81;6299794;28;19920;-67
2022/12/31 04:05:13;;;;;;;;;;;;;;;-19.10;60.88;97821.44;6299985;28;19919;-67
2022/12/31 04:08:19;;;;;;;;;;;;;;;-19.01;61.28;97823.66;6298362;28;19920;-67
2022/12/31 04:11:22;;;;;;;;;;;;;;;-18.82;61.16;97814.00;6299598;28;20386;-67
2022/12/31 04:14:26;;;;;;;;;;;;;;;-18.71;61.11;97813.00;6299368;28;20410;-67
2022/12/31 04:17:32;;;;;;;;;;;;;;;-18.55;60.75;97816.50;6299396;28;20310;-67
2022/12/31 04:20:35;;;;;;;;;;;;;;;-18.39;60.57;97809.16;6299294;28;19966;-67
2022/12/31 04:23:36;;;;;;;;;;;;;;;-18.26;60.63;97819.16;6299042;28;19943;-67
2022/12/31 04:26:38;;;;;;;;;;;;;;;-18.15;60.69;97832.38;6299260;28;20023;-67
2022/12/31 04:29:49;;;;;;;;;;;;;;;-18.10;60.10;97835.19;6298125;28;20002;-68
2022/12/31 04:32:50;;;;;;;;;;;;;;;-18.15;60.09;97833.25;6299059;28;19920;-68
2022/12/31 04:35:51;;;;;;;;;;;;;;;-18.23;60.17;97826.88;6298974;28;19923;-67
2022/12/31 04:38:57;;;;;;;;;;;;;;;-18.32;59.94;97831.34;6297922;28;19920;-67
2022/12/31 04:42:03;;;;;;;;;;;;;;;-18.39;60.24;97827.59;6298529;28;19924;-68
2022/12/31 04:45:04;;;;;;;;;;;;;;;-18.42;60.44;97839.09;6298057;28;19920;-68
2022/12/31 04:48:05;;;;;;;;;;;;;;;-18.43;60.32;97832.31;6298920;28;19962;-68
2022/12/31 04:51:06;;;;;;;;;;;;;;;-18.41;60.44;97830.78;6298730;28;19920;-68
2022/12/31 04:54:10;;;;;;;;;;;;;;;-18.34;59.97;97830.38;6297475;28;19924;-68
2022/12/31 04:57:15;;;;;;;;;;;;;;;-18.24;60.39;97837.72;6298594;28;19920;-68
2022/12/31 05:00:16;;;;;;;;;;;;;;;-18.02;60.24;97839.91;6297611;28;19920;-68
2022/12/31 05:03:17;;;;;;;;;;;;;;;-17.76;59.92;97833.88;6298200;28;19967;-68
2022/12/31 05:06:20;;;;;;;;;;;;;;;-17.48;60.13;97845.59;6297570;28;19954;-68
2022/12/31 05:09:22;;;;;;;;;;;;;;;-17.19;59.83;97848.94;6298200;28;19920;-68
2022/12/31 05:12:26;;;;;;;;;;;;;;;-16.82;59.47;97857.81;6296799;28;19920;-68
2022/12/31 05:15:27;;;;;;;;;;;;;;;-16.42;59.31;97856.63;6298047;28;19920;-68
2022/12/31 05:18:28;;;;;;;;;;;;;;;-16.06;58.78;97855.25;6297755;28;19920;-67
2022/12/31 05:21:29;;;;;;;;;;;;;;;-15.73;58.39;97846.09;6298011;28;19920;-67
2022/12/31 05:24:30;;;;;;;;;;;;;;;-15.44;57.86;97840.00;6297335;28;19926;-67
2022/12/31 05:27:37;;;;;;;;;;;;;;;-15.18;57.54;97848.00;6297633;28;19924;-68
2022/12/31 05:30:43;;;;;;;;;;;;;;;-15.00;57.14;97848.06;6297747;28;19920;-68
2022/12/31 05:33:44;;;;;;;;;;;;;;;-14.86;57.12;97851.28;6297454;28;19920;-68
2022/12/31 05:36:47;;;;;;;;;;;;;;;-14.80;56.75;97847.41;6297197;28;19920;-68
2022/12/31 05:39:53;;;;;;;;;;;;;;;-14.71;56.95;97841.94;6297185;28;19924;-68
2022/12/31 05:42:54;;;;;;;;;;;;;;;-14.55;56.44;97839.38;6297252;28;20007;-68
2022/12/31 05:46:02;;;;;;;;;;;;;;;-14.38;56.61;97856.94;6297272;28;19920;-67
2022/12/31 05:49:02;;;;;;;;;;;;;;;-14.22;56.40;97854.34;6297232;28;19946;-68
2022/12/31 05:52:03;;;;;;;;;;;;;;;-14.06;56.15;97851.75;6296555;28;19920;-68
2022/12/31 05:55:09;;;;;;;;;;;;;;;-13.90;56.28;97857.50;6296655;28;19920;-69
2022/12/31 05:58:14;;;;;;;;;;;;;;;-13.81;55.84;97851.22;6296081;28;19920;-68
2022/12/31 06:01:17;;;;;;;;;;;;;;;-13.72;55.87;97855.81;6296211;28;19920;-69
2022/12/31 06:04:23;;;;;;;;;;;;;;;-13.62;55.65;97852.88;6296776;28;19920;-69
2022/12/31 06:07:27;;;;;;;;;;;;;;;-13.46;55.38;97861.19;6295542;28;19920;-68
2022/12/31 06:10:29;;;;;;;;;;;;;;;-13.31;55.84;97861.84;6297035;28;19927;-68
2022/12/31 06:13:30;;;;;;;;;;;;;;;-13.16;55.90;97857.44;6296550;28;20066;-68
2022/12/31 06:16:33;;;;;;;;;;;;;;;-13.00;55.30;97858.06;6296449;28;19920;-68
2022/12/31 06:19:36;;;;;;;;;;;;;;;-12.84;55.48;97855.38;6296776;28;19920;-67
2022/12/31 06:22:40;;;;;;;;;;;;;;;-12.58;55.57;97865.75;6296457;28;19920;-68
2022/12/31 06:25:51;;;;;;;;;;;;;;;-12.33;55.38;97873.53;6296356;28;20133;-67
2022/12/31 06:28:51;;;;;;;;;;;;;;;-12.13;55.48;97881.09;6296176;28;19923;-68
2022/12/31 06:31:55;;;;;;;;;;;;;;;-11.96;55.54;97872.47;6296270;28;20301;-69
2022/12/31 06:34:56;;;;;;;;;;;;;;;-11.84;55.19;97872.03;6277536;28;19916;-68
2022/12/31 06:37:58;;;;;;;;;;;;;;;-11.76;54.84;97876.59;6296153;28;19920;-68
2022/12/31 06:41:03;;;;;;;;;;;;;;;-11.57;54.78;97873.06;6296259;28;20373;-68
2022/12/31 06:44:07;;;;;;;;;;;;;;;-11.37;54.76;97871.28;6296042;28;19969;-68
2022/12/31 06:47:11;;;;;;;;;;;;;;;-11.12;54.81;97873.03;6296186;28;20344;-68
2022/12/31 06:50:14;;;;;;;;;;;;;;;-10.94;53.59;97867.72;6296082;28;19916;-68
2022/12/31 06:53:18;;;;;;;;;;;;;;;-10.83;54.04;97859.63;6295934;28;19924;-67
2022/12/31 06:56:21;;;;;;;;;;;;;;;-10.77;54.00;97859.81;6295080;28;20019;-68
2022/12/31 06:59:28;;;;;;;;;;;;;;;-10.57;53.81;97858.81;6295806;28;19924;-67
2022/12/31 07:02:41;;;;;;;;;;;;;;;-10.56;52.83;97852.91;6295293;28;19924;-68
2022/12/31 07:05:44;;;;;;;;;;;;;;;-10.37;53.63;97856.06;6295433;28;19920;-67
2022/12/31 07:08:50;;;;;;;;;;;;;;;-9.85;53.32;97857.66;6294291;28;20347;-68
2022/12/31 07:12:05;;;;;;;;;;;;;;;-9.33;52.04;97860.09;6294739;28;19921;-68
2022/12/31 07:15:09;;;;;;;;;;;;;;;-8.89;51.73;97867.25;6295660;28;20392;-68
2022/12/31 07:18:10;;;;;;;;;;;;;;;-8.67;51.03;97859.34;6295358;28;19927;-67
2022/12/31 07:21:15;;;;;;;;;;;;;;;-8.70;50.46;97851.59;6295139;28;20468;-68
2022/12/31 07:24:16;;;;;;;;;;;;;;;-8.56;51.07;97853.66;6294673;28;19920;-67
2022/12/31 07:27:35;;;;;;;;;;;;;;;-8.25;51.15;97848.47;6295370;28;20263;-67
2022/12/31 07:30:36;;;;;;;;;;;;;;;-7.37;50.49;97848.75;6295101;28;19920;-68
2022/12/31 07:34:03;;;;;;;;;;;;;;;-5.00;49.09;97844.13;6294834;28;19973;-68
2022/12/31 07:37:16;;;;;;;;;;;;;;;-1.37;44.00;97837.31;6291843;28;19935;-68
2022/12/31 07:40:29;;;;;;;;;;;;;;;1.07;40.95;97842.53;6294997;28;20014;-67
2022/12/31 07:43:46;;;;;;;;;;;;;;;2.58;39.84;97836.03;6294939;28;19920;-69
2022/12/31 07:46:55;;;;;;;;;;;;;;;3.64;38.59;97826.13;6294991;28;19920;-68
2022/12/31 07:49:58;;;;;;;;;;;;;;;4.46;38.10;97834.59;6294618;28;19920;-68
2022/12/31 07:53:02;;;;;;;;;;;;;;;5.09;35.33;97819.03;6295041;28;19920;-68
2022/12/31 07:56:04;;;;;;;;;;;;;;;5.68;38.15;97829.50;6294864;28;19966;-69
2022/12/31 07:59:18;;;;;;;;;;;;;;;6.41;37.48;97826.38;6294625;28;20648;-69
2022/12/31 08:02:28;;;;;;;;;;;;;;;7.13;37.35;97841.34;6294616;28;20053;-70
2022/12/31 08:05:33;;;;;;;;;;;;;;;7.77;34.33;97848.63;6295016;28;20437;-69
2022/12/31 08:08:40;;;;;;;;;;;;;;;7.97;33.52;97851.31;6294911;28;20106;-70
2022/12/31 08:11:51;;;;;;;;;;;;;;;7.83;35.50;97853.63;6295070;28;19920;-69
2022/12/31 08:14:56;;;;;;;;;;;;;;;7.29;27.35;97841.69;6294430;28;20273;-69
2022/12/31 08:17:57;;;;;;;;;;;;;;;7.02;30.07;97839.16;6295412;28;20400;-69
2022/12/31 08:21:19;;;;;;;;;;;;;;;7.30;35.55;97848.59;6298156;28;20377;-70
2022/12/31 08:24:36;;;;;;;;;;;;;;;8.09;33.82;97850.00;6299203;28;19920;-70
2022/12/31 08:27:46;;;;;;;;;;;;;;;7.85;32.13;97839.56;6299320;28;20385;-70
2022/12/31 08:30:59;;;;;;;;;;;;;;;7.16;32.31;97831.66;6298964;28;20374;-70
2022/12/31 08:34:07;;;;;;;;;;;;;;;7.41;32.61;97835.97;6299083;28;20377;-69
2022/12/31 08:37:15;;;;;;;;;;;;;;;8.25;30.14;97824.03;6298925;28;19928;-68
2022/12/31 08:40:18;;;;;;;;;;;;;;;8.98;32.52;97823.63;6299148;28;20009;-69
2022/12/31 08:43:27;;;;;;;;;;;;;;;9.59;32.48;97821.78;6298835;28;19925;-70
2022/12/31 08:46:33;;;;;;;;;;;;;;;9.95;32.35;97823.66;6298726;28;19927;-70
2022/12/31 08:49:36;;;;;;;;;;;;;;;10.12;32.93;97815.81;6298604;28;19920;-70
2022/12/31 08:52:40;;;;;;;;;;;;;;;9.95;34.57;97808.72;6298605;28;19927;-69
2022/12/31 08:55:42;;;;;;;;;;;;;;;9.83;36.04;97810.16;6298600;28;20033;-70
2022/12/31 08:58:58;;;;;;;;;;;;;;;9.78;37.14;97812.16;6298428;28;19927;-70
2022/12/31 09:02:17;;;;;;;;;;;;;;;10.08;33.51;97814.25;6297646;28;20026;-69
2022/12/31 09:05:24;;;;;;;;;;;;;;;10.33;36.11;97814.81;6298601;28;19920;-70
2022/12/31 09:08:31;;;;;;;;;;;;;;;10.43;31.99;97819.63;6298358;28;19920;-69
2022/12/31 09:11:41;;;;;;;;;;;;;;;10.40;35.77;97817.16;6297946;28;19922;-69
2022/12/31 09:14:48;;;;;;;;;;;;;;;10.45;35.27;97817.78;6298305;28;19967;-70
2022/12/31 09:17:52;;;;;;;;;;;;;;;10.46;34.96;97819.47;6298285;28;19921;-69
2022/12/31 09:20:53;;;;;;;;;;;;;;;10.49;36.21;97820.16;6297475;28;19994;-69
2022/12/31 09:23:57;;;;;;;;;;;;;;;10.49;35.93;97829.84;6297906;28;19920;-67
2022/12/31 09:27:20;;;;;;;;;;;;;;;10.55;28.15;97824.28;6296658;28;19927;-68
2022/12/31 09:30:22;;;;;;;;;;;;;;;10.25;35.01;97834.50;6296514;28;19932;-68
2022/12/31 09:33:45;;;;;;;;;;;;;;;10.16;34.56;97827.03;6297602;28;20005;-68
2022/12/31 09:36:50;;;;;;;;;;;;;;;9.89;34.10;97827.41;6298008;28;19943;-68
2022/12/31 09:39:57;;;;;;;;;;;;;;;9.71;34.40;97837.03;6297360;28;19920;-68
2022/12/31 09:43:07;;;;;;;;;;;;;;;9.33;31.31;97834.34;6297263;28;19924;-68
2022/12/31 09:46:17;;;;;;;;;;;;;;;8.63;33.44;97834.75;6297164;28;19921;-70
2022/12/31 09:49:39;;;;;;;;;;;;;;;7.57;35.78;97837.13;6297248;28;19923;-68
2022/12/31 09:52:58;;;;;;;;;;;;;;;5.97;37.71;97840.84;6296513;28;19927;-68
2022/12/31 09:56:04;;;;;;;;;;;;;;;4.63;39.25;97846.34;6297099;28;20374;-68
2022/12/31 09:59:25;;;;;;;;;;;;;;;3.33;38.70;97842.38;6296351;28;19920;-68
2022/12/31 10:02:29;;;;;;;;;;;;;;;1.94;40.61;97843.13;6296865;28;19920;-68
2022/12/31 10:05:30;;;;;;;;;;;;;;;1.09;40.98;97838.19;6296773;28;19920;-68
2022/12/31 10:08:39;;;;;;;;;;;;;;;0.92;41.22;97840.13;6296853;28;19931;-69
2022/12/31 10:11:40;;;;;;;;;;;;;;;0.88;40.27;97837.56;6296607;28;19920;-69
2022/12/31 10:15:05;;;;;;;;;;;;;;;-0.39;40.79;97837.78;6296751;28;19924;-68
2022/12/31 10:18:15;;;;;;;;;;;;;;;-2.73;43.74;97837.25;6296040;28;19920;-68
2022/12/31 10:21:22;;;;;;;;;;;;;;;-4.36;45.47;97843.06;6296428;28;19920;-69
2022/12/31 10:24:44;;;;;;;;;;;;;;;-5.40;46.64;97842.75;6296019;28;20022;-68
2022/12/31 10:28:08;;;;;;;;;;;;;;;-6.16;47.59;97842.50;6295915;28;19920;-68
2022/12/31 10:31:24;;;;;;;;;;;;;;;-6.73;47.28;97840.66;6268805;28;19924;-68
2022/12/31 10:34:30;;;;;;;;;;;;;;;-7.22;47.32;97840.53;6296262;28;19920;-68
2022/12/31 10:37:53;;;;;;;;;;;;;;;-7.62;47.75;97846.50;6296086;28;19920;-68
2022/12/31 10:41:01;;;;;;;;;;;;;;;-8.02;47.89;97848.16;6284214;28;19926;-68
2022/12/31 10:44:20;;;;;;;;;;;;;;;-8.45;48.01;97844.59;6295652;28;19921;-68
2022/12/31 10:47:40;;;;;;;;;;;;;;;-8.88;48.14;97843.47;6294916;28;20102;-68
2022/12/31 10:50:47;;;;;;;;;;;;;;;-9.19;47.59;97846.88;6295609;28;19931;-68
2022/12/31 10:54:09;;;;;;;;;;;;;;;-9.44;47.61;97845.31;6295764;28;19943;-67
2022/12/31 10:57:14;;;;;;;;;;;;;;;-9.73;47.61;97837.69;6295661;28;19920;-68
2022/12/31 11:00:17;;;;;;;;;;;;;;;-9.96;47.97;97839.53;6295037;28;19927;-68
2022/12/31 11:03:21;;;;;;;;;;;;;;;-10.19;47.74;97829.50;6295335;28;19920;-68
2022/12/31 11:06:43;;;;;;;;;;;;;;;-10.39;47.68;97835.66;6295168;28;19995;-68
2022/12/31 11:09:46;;;;;;;;;;;;;;;-10.58;47.54;97841.84;6295606;28;19921;-68
2022/12/31 11:13:02;;;;;;;;;;;;;;;-10.82;47.53;97835.91;6295075;28;20030;-68
2022/12/31 11:16:24;;;;;;;;;;;;;;;-11.04;48.20;97832.63;6295381;28;20336;-67
2022/12/31 11:19:30;;;;;;;;;;;;;;;-11.22;48.29;97842.16;6295692;28;19927;-69
2022/12/31 11:23:03;;;;;;;;;;;;;;;-11.39;48.34;97841.53;6295072;28;19935;-68
2022/12/31 11:26:13;;;;;;;;;;;;;;;-11.56;48.49;97843.47;6262197;28;19921;-68
2022/12/31 11:29:27;;;;;;;;;;;;;;;-11.73;48.18;97849.59;6295032;28;19920;-67
2022/12/31 11:32:44;;;;;;;;;;;;;;;-11.91;48.76;97855.75;6294890;28;19927;-68
2022/12/31 11:36:06;;;;;;;;;;;;;;;-12.16;49.15;97848.00;6295047;28;19920;-68
2022/12/31 11:39:15;;;;;;;;;;;;;;;-12.48;49.39;97850.06;6295284;28;19920;-68
2022/12/31 11:42:22;;;;;;;;;;;;;;;-12.70;49.66;97848.38;6294738;28;19920;-67
2022/12/31 11:45:45;;;;;;;;;;;;;;;-12.91;50.00;97855.91;6295140;28;19921;-68
2022/12/31 11:49:09;;;;;;;;;;;;;;;-13.11;49.72;97855.94;6294898;28;19920;-68
2022/12/31 11:52:26;;;;;;;;;;;;;;;-13.34;50.28;97854.13;6296281;28;19920;-68
2022/12/31 11:55:29;;;;;;;;;;;;;;;-13.55;50.20;97851.53;6299764;28;19948;-68
2022/12/31 11:58:32;;;;;;;;;;;;;;;-13.79;50.64;97846.19;6298992;28;19920;-68
2022/12/31 12:01:55;;;;;;;;;;;;;;;-14.03;50.83;97848.50;6298826;28;19920;-68
2022/12/31 12:04:58;;;;;;;;;;;;;;;-14.21;50.84;97855.22;6299561;28;20396;-68
2022/12/31 12:08:05;;;;;;;;;;;;;;;-14.36;50.89;97857.88;6299910;28;19920;-68
2022/12/31 12:11:22;;;;;;;;;;;;;;;-14.53;51.05;97862.16;6299642;28;19920;-68
2022/12/31 12:14:52;;;;;;;;;;;;;;;-14.69;50.93;97855.50;6298692;28;19944;-68
2022/12/31 12:17:56;;;;;;;;;;;;;;;-14.84;50.92;97869.91;6286407;28;19921;-68
2022/12/31 12:21:18;;;;;;;;;;;;;;;-14.99;50.77;97867.50;6299353;28;20378;-69
2022/12/31 12:24:32;;;;;;;;;;;;;;;-15.13;50.94;97864.28;6299303;28;19920;-69
2022/12/31 12:27:35;;;;;;;;;;;;;;;-15.28;51.17;97855.91;6299406;28;19923;-68
2022/12/31 12:30:42;;;;;;;;;;;;;;;-15.42;51.25;97861.13;6299183;28;20400;-68
2022/12/31 12:33:49;;;;;;;;;;;;;;;-15.51;51.41;97867.34;6298795;28;19974;-68
2022/12/31 12:36:50;;;;;;;;;;;;;;;-15.59;51.37;97876.16;6298754;28;19920;-69
2022/12/31 12:39:59;;;;;;;;;;;;;;;-15.64;51.84;97876.78;6298130;28;20326;-68
2022/12/31 12:43:02;;;;;;;;;;;;;;;-15.64;51.69;97880.97;6298496;28;19920;-68
2022/12/31 12:46:20;;;;;;;;;;;;;;;-15.66;51.87;97893.50;6299126;28;19920;-69
2022/12/31 12:49:25;;;;;;;;;;;;;;;-15.71;51.46;97882.34;6299035;28;19963;-69
2022/12/31 12:52:35;;;;;;;;;;;;;;;-15.79;51.79;97885.22;6298159;28;20338;-69
2022/12/31 12:55:51;;;;;;;;;;;;;;;-15.84;51.34;97882.47;6297819;28;20294;-68
2022/12/31 12:58:57;;;;;;;;;;;;;;;-15.90;51.65;97888.06;6297333;28;19924;-68
2022/12/31 13:02:16;;;;;;;;;;;;;;;-15.98;51.36;97885.91;6298405;28;19920;-69
2022/12/31 13:05:20;;;;;;;;;;;;;;;-16.08;51.96;97872.78;6296633;28;19926;-69
2022/12/31 13:08:39;;;;;;;;;;;;;;;-16.15;52.17;97878.28;6297853;28;20023;-67
2022/12/31 13:11:52;;;;;;;;;;;;;;;-16.23;51.95;97886.22;6297590;28;20360;-68
2022/12/31 13:15:07;;;;;;;;;;;;;;;-16.35;51.63;97892.31;6297505;28;19963;-68
2022/12/31 13:18:47;;;;;;;;;;;;;;;-16.52;52.03;97893.03;6297908;28;20444;-67
2022/12/31 13:21:56;;;;;;;;;;;;;;;-16.61;52.17;97890.88;6223228;28;19921;-67
2022/12/31 13:24:57;;;;;;;;;;;;;;;-16.75;52.07;97900.16;6297506;28;19927;-68
2022/12/31 13:28:02;;;;;;;;;;;;;;;-16.92;51.80;97900.88;6296594;28;20397;-68
2022/12/31 13:31:12;;;;;;;;;;;;;;;-17.09;51.97;97894.00;6297742;28;19920;-68
2022/12/31 13:34:23;;;;;;;;;;;;;;;-17.23;51.93;97896.56;6297865;28;20015;-68
2022/12/31 13:37:30;;;;;;;;;;;;;;;-17.34;52.22;97897.56;6297682;28;20401;-68
2022/12/31 13:40:51;;;;;;;;;;;;;;;-17.39;52.21;97901.47;6296980;28;20367;-68
2022/12/31 13:44:02;;;;;;;;;;;;;;;-17.48;52.12;97900.91;6296751;28;20013;-68
2022/12/31 13:47:19;;;;;;;;;;;;;;;-17.55;52.11;97899.66;6297531;28;20322;-68
2022/12/31 13:50:28;;;;;;;;;;;;;;;-17.60;52.09;97901.06;6297324;28;20017;-69
2022/12/31 13:53:41;;;;;;;;;;;;;;;-17.58;52.35;97903.66;6295788;28;20302;-68
2022/12/31 13:56:46;;;;;;;;;;;;;;;-17.55;52.11;97888.75;6297305;28;19931;-69
2022/12/31 13:59:51;;;;;;;;;;;;;;;-17.55;52.47;97894.63;6296262;28;19920;-68
2022/12/31 14:02:58;;;;;;;;;;;;;;;-17.47;52.30;97902.66;6297008;28;19943;-68
2022/12/31 14:06:02;;;;;;;;;;;;;;;-17.42;52.26;97891.22;6296427;28;19920;-68
2022/12/31 14:09:06;;;;;;;;;;;;;;;-17.39;51.81;97896.44;6296782;28;19926;-68
2022/12/31 14:12:10;;;;;;;;;;;;;;;-17.39;51.99;97901.47;6296816;28;19921;-68
2022/12/31 14:15:23;;;;;;;;;;;;;;;-17.47;51.78;97902.66;6296983;28;19926;-68
2022/12/31 14:18:27;;;;;;;;;;;;;;;-17.59;51.77;97901.91;6296873;28;19966;-68
2022/12/31 14:21:38;;;;;;;;;;;;;;;-17.73;51.86;97894.41;6296033;28;19956;-68
2022/12/31 14:24:48;;;;;;;;;;;;;;;-17.79;51.96;97904.13;6296118;28;20401;-68
2022/12/31 14:27:54;;;;;;;;;;;;;;;-17.84;52.20;97905.47;6295979;28;20412;-68
2022/12/31 14:31:01;;;;;;;;;;;;;;;-17.90;52.22;97917.69;6296436;28;19916;-67
2022/12/31 14:34:02;;;;;;;;;;;;;;;-17.97;52.28;97918.06;6295930;28;19931;-67
2022/12/31 14:37:24;;;;;;;;;;;;;;;-18.06;52.01;97910.81;6296221;28;19920;-66
2022/12/31 14:40:31;;;;;;;;;;;;;;;-18.15;52.25;97913.63;6295836;28;19924;-68
2022/12/31 14:43:53;;;;;;;;;;;;;;;-18.23;52.11;97914.78;6296339;28;19920;-68
2022/12/31 14:47:15;;;;;;;;;;;;;;;-18.25;52.23;97915.50;6296040;28;19920;-68
2022/12/31 14:50:32;;;;;;;;;;;;;;;-18.24;52.66;97909.69;6295992;28;19920;-68
2022/12/31 14:53:36;;;;;;;;;;;;;;;-18.24;52.39;97914.72;6295834;28;19928;-68
2022/12/31 14:56:42;;;;;;;;;;;;;;;-18.29;52.48;97904.34;6296051;28;20344;-67
2022/12/31 14:59:56;;;;;;;;;;;;;;;-18.33;52.38;97912.50;6295909;28;19920;-67
2022/12/31 15:03:05;;;;;;;;;;;;;;;-18.41;52.63;97913.66;6295895;28;19994;-67
2022/12/31 15:06:14;;;;;;;;;;;;;;;-18.43;52.37;97913.53;6296199;28;19920;-67
2022/12/31 15:09:32;;;;;;;;;;;;;;;-18.46;52.31;97925.03;6295438;28;19924;-67
2022/12/31 15:12:52;;;;;;;;;;;;;;;-18.56;52.73;97933.63;6295595;28;20386;-67
2022/12/31 15:16:02;;;;;;;;;;;;;;;-18.65;52.34;97935.53;6294412;28;19998;-67
2022/12/31 15:19:18;;;;;;;;;;;;;;;-18.71;52.48;97937.63;6294060;28;19920;-67
2022/12/31 15:22:30;;;;;;;;;;;;;;;-18.71;52.59;97943.53;6295588;28;19920;-68
2022/12/31 15:25:37;;;;;;;;;;;;;;;-18.70;52.47;97934.38;6295298;28;20274;-67
2022/12/31 15:28:39;;;;;;;;;;;;;;;-18.68;52.35;97938.72;6299186;28;19920;-68
2022/12/31 15:31:45;;;;;;;;;;;;;;;-18.61;52.67;97942.50;6300428;28;19920;-68
2022/12/31 15:34:59;;;;;;;;;;;;;;;-18.61;52.09;97948.38;6300491;28;19926;-67
2022/12/31 15:38:23;;;;;;;;;;;;;;;-18.55;52.49;97952.06;6300627;28;20409;-68
2022/12/31 15:41:35;;;;;;;;;;;;;;;-18.52;52.17;97944.72;6291967;28;19920;-68
2022/12/31 15:44:37;;;;;;;;;;;;;;;-18.52;51.95;97944.72;6300556;28;19920;-68
2022/12/31 15:47:51;;;;;;;;;;;;;;;-18.57;51.89;97947.81;6300312;28;19928;-68
2022/12/31 15:50:57;;;;;;;;;;;;;;;-18.63;51.77;97951.56;6300165;28;19920;-67
2022/12/31 15:54:03;;;;;;;;;;;;;;;-18.70;51.75;97955.31;6300289;28;20025;-68
2022/12/31 15:57:05;;;;;;;;;;;;;;;-18.75;52.08;97958.34;6299998;28;20370;-68
2022/12/31 16:00:14;;;;;;;;;;;;;;;-18.77;52.28;97957.34;6298141;28;19920;-68
2022/12/31 16:03:21;;;;;;;;;;;;;;;-18.82;52.59;97967.97;6299724;28;19928;-68
2022/12/31 16:06:29;;;;;;;;;;;;;;;-18.89;52.59;97968.31;6299819;28;20305;-68
2022/12/31 16:09:33;;;;;;;;;;;;;;;-18.90;52.30;97970.75;6299961;28;19941;-67
2022/12/31 16:12:39;;;;;;;;;;;;;;;-18.93;52.37;97965.53;6299801;28;19921;-68
2022/12/31 16:15:42;;;;;;;;;;;;;;;-18.92;52.50;97963.09;6299597;28;19920;-67
2022/12/31 16:18:48;;;;;;;;;;;;;;;-18.93;52.99;97968.03;6299738;28;19920;-67